createdAt,value
2022-09-15T00:06:40.826Z,13.32
2022-09-15T00:15:06.403Z,13.38
2022-09-15T00:23:29.322Z,13.46
2022-09-15T00:31:52.523Z,13.47
2022-09-15T00:40:15.630Z,13.51
2022-09-15T00:48:41.574Z,13.55
2022-09-15T00:57:11.810Z,13.46
2022-09-15T01:05:39.773Z,13.51
2022-09-15T01:14:02.631Z,13.54
2022-09-15T01:22:41.087Z,13.60
2022-09-15T01:31:13.941Z,13.64
2022-09-15T01:39:43.463Z,13.62
2022-09-15T01:48:09.076Z,13.60
2022-09-15T01:56:32.392Z,13.68
2022-09-15T02:05:06.058Z,13.71
2022-09-15T02:13:40.994Z,13.76
2022-09-15T02:22:12.274Z,13.71
2022-09-15T02:30:40.552Z,13.71
2022-09-15T02:39:10.106Z,13.68
2022-09-15T02:47:33.259Z,13.70
2022-09-15T02:55:56.316Z,13.73
2022-09-15T03:04:19.554Z,13.66
2022-09-15T03:12:53.367Z,13.58
2022-09-15T03:21:19.409Z,13.58
2022-09-15T03:29:42.205Z,13.54
2022-09-15T03:38:04.982Z,13.55
2022-09-15T03:46:29.524Z,13.58
2022-09-15T03:54:52.274Z,13.55
2022-09-15T04:03:15.125Z,13.52
2022-09-15T04:11:39.189Z,13.56
2022-09-15T04:20:03.094Z,13.58
2022-09-15T04:28:27.655Z,13.64
2022-09-15T04:36:50.686Z,13.77
2022-09-15T04:45:13.505Z,13.85
2022-09-15T04:53:37.280Z,13.87
2022-09-15T05:02:00.432Z,13.90
2022-09-15T05:10:23.306Z,13.81
2022-09-15T05:18:48.636Z,13.82
2022-09-15T05:27:11.996Z,13.86
2022-09-15T05:35:34.764Z,13.94
2022-09-15T05:43:58.719Z,14.10
2022-09-15T05:52:21.963Z,14.29
2022-09-15T06:00:44.797Z,14.41
2022-09-15T06:09:07.807Z,14.57
2022-09-15T06:17:34.275Z,14.77
2022-09-15T06:25:57.483Z,14.87
2022-09-15T06:34:20.787Z,15.04
2022-09-15T06:42:43.656Z,15.15
2022-09-15T06:51:09.157Z,15.12
2022-09-15T06:59:32.087Z,15.11
2022-09-15T07:08:01.033Z,15.11
2022-09-15T07:16:25.930Z,14.99
2022-09-15T07:24:49.198Z,15.04
2022-09-15T07:33:14.027Z,15.29
2022-09-15T07:41:36.926Z,15.41
2022-09-15T07:49:59.852Z,15.33
2022-09-15T07:58:23.245Z,15.34
2022-09-15T08:06:46.212Z,15.35
2022-09-15T08:15:09.709Z,15.29
2022-09-15T08:23:32.920Z,15.33
2022-09-15T08:31:55.935Z,15.44
2022-09-15T08:40:32.850Z,15.64
2022-09-15T08:49:06.437Z,15.81
2022-09-15T08:57:29.381Z,15.88
2022-09-15T09:05:59.514Z,16.05
2022-09-15T09:14:33.247Z,16.49
2022-09-15T09:22:59.460Z,16.96
2022-09-15T09:31:25.207Z,17.35
2022-09-15T09:39:48.990Z,17.50
2022-09-15T09:48:18.958Z,17.56
2022-09-15T09:56:45.589Z,17.56
2022-09-15T10:05:08.590Z,17.59
2022-09-15T10:13:34.543Z,17.41
2022-09-15T10:22:00.278Z,17.49
2022-09-15T10:30:24.152Z,17.80
2022-09-15T10:38:49.668Z,18.10
2022-09-15T10:47:49.501Z,18.22
2022-09-15T10:56:28.285Z,18.27
2022-09-15T11:05:13.158Z,18.51
2022-09-15T11:13:42.166Z,18.73
2022-09-15T11:22:26.792Z,18.83
2022-09-15T11:31:04.070Z,18.82
2022-09-15T11:39:36.386Z,18.60
2022-09-15T11:48:12.330Z,18.66
2022-09-15T11:56:42.501Z,18.53
2022-09-15T12:05:32.410Z,18.49
2022-09-15T12:13:56.376Z,18.14
2022-09-15T12:22:35.537Z,17.84
2022-09-15T12:31:26.476Z,17.81
2022-09-15T12:39:51.393Z,18.12
2022-09-15T12:48:18.484Z,18.16
2022-09-15T12:56:52.446Z,18.12
2022-09-15T13:05:46.490Z,17.98
2022-09-15T13:14:22.844Z,17.80
2022-09-15T13:22:52.584Z,17.85
2022-09-15T13:31:40.579Z,18.07
2022-09-15T13:40:06.468Z,18.24
2022-09-15T13:48:39.769Z,18.30
2022-09-15T13:57:03.396Z,18.20
2022-09-15T14:05:30.465Z,18.15
2022-09-15T14:13:55.208Z,18.21
2022-09-15T14:22:17.919Z,18.39
2022-09-15T14:30:47.480Z,18.43
2022-09-15T14:39:22.703Z,18.43
2022-09-15T14:47:45.799Z,18.23
2022-09-15T14:56:12.141Z,17.92
2022-09-15T15:04:42.234Z,17.70
2022-09-15T15:13:12.915Z,17.48
2022-09-15T15:21:40.626Z,17.36
2022-09-15T15:30:32.102Z,17.18
2022-09-15T15:39:00.215Z,16.93
2022-09-15T15:47:28.178Z,16.70
2022-09-15T15:55:54.036Z,16.49
2022-09-15T16:04:16.888Z,16.35
2022-09-15T16:12:39.906Z,16.25
2022-09-15T16:21:02.730Z,16.16
2022-09-15T16:29:30.518Z,16.09
2022-09-15T16:37:54.822Z,15.95
2022-09-15T16:46:17.725Z,15.69
2022-09-15T16:54:42.795Z,15.47
2022-09-15T17:03:08.818Z,15.30
2022-09-15T17:11:31.585Z,15.12
2022-09-15T17:19:54.582Z,15.03
2022-09-15T17:28:22.768Z,14.82
2022-09-15T17:36:45.667Z,14.48
2022-09-15T17:45:24.857Z,14.29
2022-09-15T17:53:47.945Z,14.10
2022-09-15T18:02:18.795Z,13.90
2022-09-15T18:10:41.612Z,13.79
2022-09-15T18:19:04.640Z,13.65
2022-09-15T18:27:27.449Z,13.52
2022-09-15T18:35:55.605Z,13.41
2022-09-15T18:44:19.017Z,13.29
2022-09-15T18:52:41.858Z,13.27
2022-09-15T19:01:06.226Z,13.25
2022-09-15T19:09:29.152Z,13.15
2022-09-15T19:17:52.205Z,13.11
2022-09-15T19:26:17.033Z,13.12
2022-09-15T19:34:42.264Z,13.13
2022-09-15T19:43:05.029Z,13.15
2022-09-15T19:51:27.926Z,13.14
2022-09-15T19:59:51.497Z,13.06
2022-09-15T20:08:14.491Z,13.11
2022-09-15T20:16:37.493Z,13.20
2022-09-15T20:25:00.315Z,13.26
2022-09-15T20:33:26.626Z,13.28
2022-09-15T20:41:49.592Z,13.33
2022-09-15T20:50:12.453Z,13.28
2022-09-15T20:58:39.302Z,13.20
2022-09-15T21:07:02.806Z,13.22
2022-09-15T21:15:27.133Z,13.19
2022-09-15T21:23:53.586Z,13.19
2022-09-15T21:32:17.624Z,13.22
2022-09-15T21:40:47.059Z,13.18
2022-09-15T21:49:09.895Z,13.16
2022-09-15T21:57:32.804Z,13.22
2022-09-15T22:05:56.824Z,13.19
2022-09-15T22:14:21.734Z,13.21
2022-09-15T22:22:46.139Z,13.21
2022-09-15T22:31:11.626Z,13.13
2022-09-15T22:39:57.331Z,13.07
2022-09-15T22:48:17.408Z,13.00
2022-09-15T22:56:40.409Z,12.81
2022-09-15T23:05:03.744Z,12.67
2022-09-15T23:13:26.525Z,12.56
2022-09-15T23:21:50.066Z,12.40
2022-09-15T23:30:13.328Z,12.25
2022-09-15T23:38:39.179Z,12.16
2022-09-15T23:47:02.068Z,12.01
2022-09-15T23:55:25.468Z,11.90
